sensor_id;sensor_type;location;lat;lon;timestamp;P1;durP1;ratioP1;P2;durP2;ratioP2
5121;SDS011;2563;52.242;7.956;2022-11-21T00:01:24;26.40;;;12.10;;
5121;SDS011;2563;52.242;7.956;2022-11-21T00:03:51;26.80;;;10.57;;
5121;SDS011;2563;52.242;7.956;2022-11-21T00:06:17;31.40;;;12.20;;
5121;SDS011;2563;52.242;7.956;2022-11-21T00:08:43;29.10;;;11.50;;
5121;SDS011;2563;52.242;7.956;2022-11-21T00:11:09;27.60;;;11.77;;
5121;SDS011;2563;52.242;7.956;2022-11-21T00:13:34;25.27;;;11.20;;
5121;SDS011;2563;52.242;7.956;2022-11-21T00:16:08;22.40;;;10.97;;
5121;SDS011;2563;52.242;7.956;2022-11-21T00:18:35;22.60;;;10.37;;
5121;SDS011;2563;52.242;7.956;2022-11-21T00:21:04;27.40;;;11.27;;
5121;SDS011;2563;52.242;7.956;2022-11-21T00:23:40;30.80;;;12.47;;
5121;SDS011;2563;52.242;7.956;2022-11-21T00:26:06;28.13;;;11.20;;
5121;SDS011;2563;52.242;7.956;2022-11-21T00:28:33;25.60;;;9.60;;
5121;SDS011;2563;52.242;7.956;2022-11-21T00:30:59;25.23;;;10.57;;
5121;SDS011;2563;52.242;7.956;2022-11-21T00:33:24;30.37;;;11.77;;
5121;SDS011;2563;52.242;7.956;2022-11-21T00:35:50;24.60;;;10.50;;
5121;SDS011;2563;52.242;7.956;2022-11-21T00:38:15;29.03;;;12.87;;
5121;SDS011;2563;52.242;7.956;2022-11-21T00:40:43;24.03;;;10.60;;
5121;SDS011;2563;52.242;7.956;2022-11-21T00:43:09;30.57;;;11.47;;
5121;SDS011;2563;52.242;7.956;2022-11-21T00:45:35;24.40;;;11.43;;
5121;SDS011;2563;52.242;7.956;2022-11-21T00:48:01;23.20;;;10.10;;
5121;SDS011;2563;52.242;7.956;2022-11-21T00:50:26;29.80;;;12.03;;
5121;SDS011;2563;52.242;7.956;2022-11-21T00:52:55;26.17;;;10.93;;
5121;SDS011;2563;52.242;7.956;2022-11-21T00:55:21;28.30;;;12.40;;
5121;SDS011;2563;52.242;7.956;2022-11-21T00:57:47;24.60;;;11.17;;
5121;SDS011;2563;52.242;7.956;2022-11-21T01:00:13;24.93;;;10.20;;
5121;SDS011;2563;52.242;7.956;2022-11-21T01:02:38;26.80;;;11.37;;
5121;SDS011;2563;52.242;7.956;2022-11-21T01:05:04;30.23;;;12.77;;
5121;SDS011;2563;52.242;7.956;2022-11-21T01:07:29;23.40;;;10.30;;
5121;SDS011;2563;52.242;7.956;2022-11-21T01:09:55;23.77;;;9.90;;
5121;SDS011;2563;52.242;7.956;2022-11-21T01:12:20;25.17;;;10.53;;
5121;SDS011;2563;52.242;7.956;2022-11-21T01:14:45;27.07;;;11.17;;
5121;SDS011;2563;52.242;7.956;2022-11-21T01:17:11;25.87;;;11.23;;
5121;SDS011;2563;52.242;7.956;2022-11-21T01:19:36;27.90;;;10.83;;
5121;SDS011;2563;52.242;7.956;2022-11-21T01:22:01;24.50;;;10.13;;
5121;SDS011;2563;52.242;7.956;2022-11-21T01:24:27;25.00;;;10.73;;
5121;SDS011;2563;52.242;7.956;2022-11-21T01:26:52;23.70;;;10.20;;
5121;SDS011;2563;52.242;7.956;2022-11-21T01:29:18;25.50;;;10.63;;
5121;SDS011;2563;52.242;7.956;2022-11-21T01:31:44;22.87;;;11.13;;
5121;SDS011;2563;52.242;7.956;2022-11-21T01:34:09;21.80;;;9.87;;
5121;SDS011;2563;52.242;7.956;2022-11-21T01:36:35;25.47;;;10.57;;
5121;SDS011;2563;52.242;7.956;2022-11-21T01:39:02;27.10;;;11.03;;
5121;SDS011;2563;52.242;7.956;2022-11-21T01:41:29;21.23;;;9.83;;
5121;SDS011;2563;52.242;7.956;2022-11-21T01:44:01;25.17;;;9.93;;
5121;SDS011;2563;52.242;7.956;2022-11-21T01:46:31;27.43;;;10.90;;
5121;SDS011;2563;52.242;7.956;2022-11-21T01:49:06;25.70;;;11.60;;
5121;SDS011;2563;52.242;7.956;2022-11-21T01:51:57;23.43;;;10.10;;
5121;SDS011;2563;52.242;7.956;2022-11-21T01:54:28;25.00;;;10.40;;
5121;SDS011;2563;52.242;7.956;2022-11-21T01:59:25;24.30;;;11.30;;
5121;SDS011;2563;52.242;7.956;2022-11-21T02:01:56;30.67;;;11.20;;
5121;SDS011;2563;52.242;7.956;2022-11-21T02:04:26;23.90;;;10.67;;
5121;SDS011;2563;52.242;7.956;2022-11-21T02:06:54;21.70;;;9.87;;
5121;SDS011;2563;52.242;7.956;2022-11-21T02:09:21;25.03;;;11.70;;
5121;SDS011;2563;52.242;7.956;2022-11-21T02:11:48;25.67;;;11.03;;
5121;SDS011;2563;52.242;7.956;2022-11-21T02:14:18;25.73;;;11.43;;
5121;SDS011;2563;52.242;7.956;2022-11-21T02:16:43;20.07;;;9.57;;
5121;SDS011;2563;52.242;7.956;2022-11-21T02:19:13;22.63;;;10.17;;
5121;SDS011;2563;52.242;7.956;2022-11-21T02:21:54;25.70;;;10.57;;
5121;SDS011;2563;52.242;7.956;2022-11-21T02:24:24;26.30;;;11.10;;
5121;SDS011;2563;52.242;7.956;2022-11-21T02:26:58;25.27;;;11.00;;
5121;SDS011;2563;52.242;7.956;2022-11-21T02:29:24;25.20;;;11.33;;
5121;SDS011;2563;52.242;7.956;2022-11-21T02:31:50;28.63;;;12.63;;
5121;SDS011;2563;52.242;7.956;2022-11-21T02:34:16;26.33;;;11.53;;
5121;SDS011;2563;52.242;7.956;2022-11-21T02:36:43;25.27;;;10.30;;
5121;SDS011;2563;52.242;7.956;2022-11-21T02:39:32;25.43;;;10.80;;
5121;SDS011;2563;52.242;7.956;2022-11-21T02:41:59;26.30;;;10.63;;
5121;SDS011;2563;52.242;7.956;2022-11-21T02:44:34;24.83;;;11.13;;
5121;SDS011;2563;52.242;7.956;2022-11-21T02:47:07;23.80;;;10.83;;
5121;SDS011;2563;52.242;7.956;2022-11-21T02:50:18;26.20;;;11.40;;
5121;SDS011;2563;52.242;7.956;2022-11-21T02:52:34;26.57;;;11.57;;
5121;SDS011;2563;52.242;7.956;2022-11-21T02:54:59;26.13;;;11.33;;
5121;SDS011;2563;52.242;7.956;2022-11-21T02:57:25;31.00;;;11.87;;
5121;SDS011;2563;52.242;7.956;2022-11-21T02:59:50;26.13;;;10.77;;
5121;SDS011;2563;52.242;7.956;2022-11-21T03:02:15;27.53;;;11.40;;
5121;SDS011;2563;52.242;7.956;2022-11-21T03:04:41;25.90;;;11.70;;
5121;SDS011;2563;52.242;7.956;2022-11-21T03:07:06;24.77;;;12.00;;
5121;SDS011;2563;52.242;7.956;2022-11-21T03:09:32;30.67;;;11.77;;
5121;SDS011;2563;52.242;7.956;2022-11-21T03:11:57;25.73;;;10.87;;
5121;SDS011;2563;52.242;7.956;2022-11-21T03:14:22;26.70;;;11.43;;
5121;SDS011;2563;52.242;7.956;2022-11-21T03:16:48;26.23;;;11.70;;
5121;SDS011;2563;52.242;7.956;2022-11-21T03:19:13;27.07;;;11.93;;
5121;SDS011;2563;52.242;7.956;2022-11-21T03:21:38;29.50;;;12.87;;
5121;SDS011;2563;52.242;7.956;2022-11-21T03:24:04;24.23;;;11.50;;
5121;SDS011;2563;52.242;7.956;2022-11-21T03:26:30;28.67;;;12.37;;
5121;SDS011;2563;52.242;7.956;2022-11-21T03:28:55;28.00;;;12.10;;
5121;SDS011;2563;52.242;7.956;2022-11-21T03:31:20;26.50;;;10.90;;
5121;SDS011;2563;52.242;7.956;2022-11-21T03:33:46;32.13;;;11.00;;
5121;SDS011;2563;52.242;7.956;2022-11-21T03:36:11;26.43;;;11.43;;
5121;SDS011;2563;52.242;7.956;2022-11-21T03:38:36;22.50;;;9.97;;
5121;SDS011;2563;52.242;7.956;2022-11-21T03:41:02;22.63;;;10.37;;
5121;SDS011;2563;52.242;7.956;2022-11-21T03:43:29;28.20;;;10.97;;
5121;SDS011;2563;52.242;7.956;2022-11-21T03:45:55;24.87;;;11.20;;
5121;SDS011;2563;52.242;7.956;2022-11-21T03:48:20;26.30;;;10.73;;
5121;SDS011;2563;52.242;7.956;2022-11-21T03:50:46;25.63;;;11.07;;
5121;SDS011;2563;52.242;7.956;2022-11-21T03:53:11;34.13;;;12.70;;
5121;SDS011;2563;52.242;7.956;2022-11-21T03:55:36;26.33;;;11.90;;
5121;SDS011;2563;52.242;7.956;2022-11-21T03:58:02;24.30;;;10.60;;
5121;SDS011;2563;52.242;7.956;2022-11-21T04:00:27;31.63;;;12.63;;
5121;SDS011;2563;52.242;7.956;2022-11-21T04:02:53;24.97;;;10.97;;
5121;SDS011;2563;52.242;7.956;2022-11-21T04:05:18;26.30;;;11.07;;
5121;SDS011;2563;52.242;7.956;2022-11-21T04:07:44;26.67;;;10.80;;
5121;SDS011;2563;52.242;7.956;2022-11-21T04:10:10;24.57;;;11.60;;
5121;SDS011;2563;52.242;7.956;2022-11-21T04:12:35;26.00;;;11.80;;
5121;SDS011;2563;52.242;7.956;2022-11-21T04:15:00;20.77;;;9.77;;
5121;SDS011;2563;52.242;7.956;2022-11-21T04:17:26;24.20;;;10.93;;
5121;SDS011;2563;52.242;7.956;2022-11-21T04:19:51;23.90;;;11.60;;
5121;SDS011;2563;52.242;7.956;2022-11-21T04:22:16;22.77;;;11.13;;
5121;SDS011;2563;52.242;7.956;2022-11-21T04:24:42;27.60;;;11.00;;
5121;SDS011;2563;52.242;7.956;2022-11-21T04:27:07;26.87;;;11.07;;
5121;SDS011;2563;52.242;7.956;2022-11-21T04:29:33;29.80;;;11.50;;
5121;SDS011;2563;52.242;7.956;2022-11-21T04:31:58;27.40;;;11.77;;
5121;SDS011;2563;52.242;7.956;2022-11-21T04:34:23;24.83;;;11.50;;
5121;SDS011;2563;52.242;7.956;2022-11-21T04:36:49;29.90;;;12.33;;
5121;SDS011;2563;52.242;7.956;2022-11-21T04:39:14;24.50;;;10.90;;
5121;SDS011;2563;52.242;7.956;2022-11-21T04:41:39;25.00;;;10.70;;
5121;SDS011;2563;52.242;7.956;2022-11-21T04:44:05;26.50;;;11.40;;
5121;SDS011;2563;52.242;7.956;2022-11-21T04:46:30;24.80;;;10.73;;
5121;SDS011;2563;52.242;7.956;2022-11-21T04:48:55;26.83;;;11.40;;
5121;SDS011;2563;52.242;7.956;2022-11-21T04:51:21;23.20;;;11.20;;
5121;SDS011;2563;52.242;7.956;2022-11-21T04:53:46;26.30;;;10.93;;
5121;SDS011;2563;52.242;7.956;2022-11-21T04:56:11;26.60;;;11.70;;
5121;SDS011;2563;52.242;7.956;2022-11-21T04:58:40;29.47;;;11.77;;
5121;SDS011;2563;52.242;7.956;2022-11-21T05:01:07;29.87;;;11.43;;
5121;SDS011;2563;52.242;7.956;2022-11-21T05:03:33;24.53;;;11.47;;
5121;SDS011;2563;52.242;7.956;2022-11-21T05:05:59;24.57;;;10.93;;
5121;SDS011;2563;52.242;7.956;2022-11-21T05:08:24;24.67;;;11.37;;
5121;SDS011;2563;52.242;7.956;2022-11-21T05:10:50;26.53;;;11.23;;
5121;SDS011;2563;52.242;7.956;2022-11-21T05:13:53;28.33;;;11.20;;
5121;SDS011;2563;52.242;7.956;2022-11-21T05:16:19;22.13;;;10.43;;
5121;SDS011;2563;52.242;7.956;2022-11-21T05:18:44;21.53;;;10.00;;
5121;SDS011;2563;52.242;7.956;2022-11-21T05:21:10;29.07;;;10.67;;
5121;SDS011;2563;52.242;7.956;2022-11-21T05:23:35;28.07;;;12.20;;
5121;SDS011;2563;52.242;7.956;2022-11-21T05:26:00;29.17;;;11.93;;
5121;SDS011;2563;52.242;7.956;2022-11-21T05:28:26;26.47;;;11.70;;
5121;SDS011;2563;52.242;7.956;2022-11-21T05:30:51;29.10;;;12.27;;
5121;SDS011;2563;52.242;7.956;2022-11-21T05:33:17;24.50;;;11.20;;
5121;SDS011;2563;52.242;7.956;2022-11-21T05:35:43;25.83;;;10.90;;
5121;SDS011;2563;52.242;7.956;2022-11-21T05:38:08;26.77;;;10.50;;
5121;SDS011;2563;52.242;7.956;2022-11-21T05:40:33;26.20;;;10.70;;
5121;SDS011;2563;52.242;7.956;2022-11-21T05:42:59;28.07;;;11.60;;
5121;SDS011;2563;52.242;7.956;2022-11-21T05:45:43;26.67;;;10.97;;
5121;SDS011;2563;52.242;7.956;2022-11-21T05:48:08;24.70;;;10.97;;
5121;SDS011;2563;52.242;7.956;2022-11-21T05:50:36;24.50;;;11.77;;
5121;SDS011;2563;52.242;7.956;2022-11-21T05:53:05;23.33;;;11.43;;
5121;SDS011;2563;52.242;7.956;2022-11-21T05:55:32;27.80;;;11.97;;
5121;SDS011;2563;52.242;7.956;2022-11-21T05:57:58;32.73;;;13.10;;
5121;SDS011;2563;52.242;7.956;2022-11-21T06:00:25;24.30;;;10.83;;
5121;SDS011;2563;52.242;7.956;2022-11-21T06:02:50;28.87;;;12.77;;
5121;SDS011;2563;52.242;7.956;2022-11-21T06:05:34;23.63;;;10.63;;
5121;SDS011;2563;52.242;7.956;2022-11-21T06:08:00;29.73;;;12.03;;
5121;SDS011;2563;52.242;7.956;2022-11-21T06:10:25;24.70;;;11.73;;
5121;SDS011;2563;52.242;7.956;2022-11-21T06:12:50;32.20;;;11.83;;
5121;SDS011;2563;52.242;7.956;2022-11-21T06:15:16;28.07;;;12.50;;
5121;SDS011;2563;52.242;7.956;2022-11-21T06:17:41;28.60;;;10.90;;
5121;SDS011;2563;52.242;7.956;2022-11-21T06:20:06;34.57;;;11.93;;
5121;SDS011;2563;52.242;7.956;2022-11-21T06:22:32;24.40;;;11.40;;
5121;SDS011;2563;52.242;7.956;2022-11-21T06:24:58;28.23;;;11.83;;
5121;SDS011;2563;52.242;7.956;2022-11-21T06:27:23;28.53;;;11.73;;
5121;SDS011;2563;52.242;7.956;2022-11-21T06:29:49;28.17;;;12.30;;
5121;SDS011;2563;52.242;7.956;2022-11-21T06:32:14;29.23;;;11.47;;
5121;SDS011;2563;52.242;7.956;2022-11-21T06:34:40;33.37;;;11.20;;
5121;SDS011;2563;52.242;7.956;2022-11-21T06:37:05;28.07;;;11.63;;
5121;SDS011;2563;52.242;7.956;2022-11-21T06:39:31;31.23;;;11.43;;
5121;SDS011;2563;52.242;7.956;2022-11-21T06:41:56;29.43;;;12.17;;
5121;SDS011;2563;52.242;7.956;2022-11-21T06:44:22;28.70;;;11.83;;
5121;SDS011;2563;52.242;7.956;2022-11-21T06:46:48;27.10;;;11.70;;
5121;SDS011;2563;52.242;7.956;2022-11-21T06:49:13;28.60;;;12.40;;
5121;SDS011;2563;52.242;7.956;2022-11-21T06:51:39;24.70;;;11.40;;
5121;SDS011;2563;52.242;7.956;2022-11-21T06:54:04;35.27;;;12.83;;
5121;SDS011;2563;52.242;7.956;2022-11-21T06:56:30;27.63;;;11.90;;
5121;SDS011;2563;52.242;7.956;2022-11-21T06:58:55;28.47;;;12.87;;
5121;SDS011;2563;52.242;7.956;2022-11-21T07:01:21;25.90;;;10.33;;
5121;SDS011;2563;52.242;7.956;2022-11-21T07:03:47;25.23;;;11.23;;
5121;SDS011;2563;52.242;7.956;2022-11-21T07:06:12;28.13;;;11.43;;
5121;SDS011;2563;52.242;7.956;2022-11-21T07:08:38;28.63;;;11.37;;
5121;SDS011;2563;52.242;7.956;2022-11-21T07:11:07;29.67;;;11.63;;
5121;SDS011;2563;52.242;7.956;2022-11-21T07:13:35;26.97;;;12.10;;
5121;SDS011;2563;52.242;7.956;2022-11-21T07:16:02;29.00;;;12.20;;
5121;SDS011;2563;52.242;7.956;2022-11-21T07:18:29;22.40;;;10.60;;
5121;SDS011;2563;52.242;7.956;2022-11-21T07:20:58;28.20;;;11.80;;
5121;SDS011;2563;52.242;7.956;2022-11-21T07:23:25;35.07;;;11.00;;
5121;SDS011;2563;52.242;7.956;2022-11-21T07:25:51;31.57;;;12.57;;
5121;SDS011;2563;52.242;7.956;2022-11-21T07:28:16;28.50;;;12.10;;
5121;SDS011;2563;52.242;7.956;2022-11-21T07:30:41;22.43;;;10.47;;
5121;SDS011;2563;52.242;7.956;2022-11-21T07:33:07;29.03;;;11.27;;
5121;SDS011;2563;52.242;7.956;2022-11-21T07:35:33;24.90;;;10.37;;
5121;SDS011;2563;52.242;7.956;2022-11-21T07:37:59;33.40;;;12.20;;
5121;SDS011;2563;52.242;7.956;2022-11-21T07:40:25;27.00;;;11.20;;
5121;SDS011;2563;52.242;7.956;2022-11-21T07:42:51;28.00;;;11.43;;
5121;SDS011;2563;52.242;7.956;2022-11-21T07:45:17;25.90;;;10.60;;
5121;SDS011;2563;52.242;7.956;2022-11-21T07:47:42;26.77;;;11.27;;
5121;SDS011;2563;52.242;7.956;2022-11-21T07:50:08;26.60;;;11.10;;
5121;SDS011;2563;52.242;7.956;2022-11-21T07:52:35;25.43;;;10.90;;
5121;SDS011;2563;52.242;7.956;2022-11-21T07:55:00;25.20;;;10.47;;
5121;SDS011;2563;52.242;7.956;2022-11-21T07:57:26;25.40;;;10.73;;
5121;SDS011;2563;52.242;7.956;2022-11-21T07:59:52;27.77;;;11.40;;
5121;SDS011;2563;52.242;7.956;2022-11-21T08:02:19;24.30;;;11.10;;
5121;SDS011;2563;52.242;7.956;2022-11-21T08:04:46;27.37;;;11.97;;
5121;SDS011;2563;52.242;7.956;2022-11-21T08:07:12;26.63;;;11.07;;
5121;SDS011;2563;52.242;7.956;2022-11-21T08:09:38;25.90;;;11.43;;
5121;SDS011;2563;52.242;7.956;2022-11-21T08:12:04;28.07;;;12.13;;
5121;SDS011;2563;52.242;7.956;2022-11-21T08:14:29;32.20;;;13.40;;
5121;SDS011;2563;52.242;7.956;2022-11-21T08:16:55;44.43;;;16.90;;
5121;SDS011;2563;52.242;7.956;2022-11-21T08:19:20;34.83;;;14.60;;
5121;SDS011;2563;52.242;7.956;2022-11-21T08:21:45;31.20;;;13.10;;
5121;SDS011;2563;52.242;7.956;2022-11-21T08:24:11;29.33;;;11.40;;
5121;SDS011;2563;52.242;7.956;2022-11-21T08:26:38;27.70;;;11.60;;
5121;SDS011;2563;52.242;7.956;2022-11-21T08:29:13;33.73;;;14.27;;
5121;SDS011;2563;52.242;7.956;2022-11-21T08:31:42;32.30;;;14.10;;
5121;SDS011;2563;52.242;7.956;2022-11-21T08:34:08;27.50;;;12.13;;
5121;SDS011;2563;52.242;7.956;2022-11-21T08:36:34;31.07;;;12.60;;
5121;SDS011;2563;52.242;7.956;2022-11-21T08:39:00;25.47;;;11.90;;
5121;SDS011;2563;52.242;7.956;2022-11-21T08:41:25;30.13;;;11.00;;
5121;SDS011;2563;52.242;7.956;2022-11-21T08:44:09;23.13;;;10.33;;
5121;SDS011;2563;52.242;7.956;2022-11-21T08:46:35;28.87;;;11.27;;
5121;SDS011;2563;52.242;7.956;2022-11-21T08:49:03;26.80;;;11.20;;
5121;SDS011;2563;52.242;7.956;2022-11-21T08:51:29;28.60;;;11.87;;
5121;SDS011;2563;52.242;7.956;2022-11-21T08:53:55;29.50;;;12.47;;
5121;SDS011;2563;52.242;7.956;2022-11-21T08:56:20;27.67;;;11.87;;
5121;SDS011;2563;52.242;7.956;2022-11-21T08:58:46;31.60;;;12.33;;
5121;SDS011;2563;52.242;7.956;2022-11-21T09:01:11;26.63;;;11.70;;
5121;SDS011;2563;52.242;7.956;2022-11-21T09:03:37;29.43;;;11.33;;
5121;SDS011;2563;52.242;7.956;2022-11-21T09:06:02;34.70;;;13.07;;
5121;SDS011;2563;52.242;7.956;2022-11-21T09:08:28;27.93;;;11.90;;
5121;SDS011;2563;52.242;7.956;2022-11-21T09:10:54;37.20;;;14.67;;
5121;SDS011;2563;52.242;7.956;2022-11-21T09:13:20;29.63;;;11.97;;
5121;SDS011;2563;52.242;7.956;2022-11-21T09:15:45;26.77;;;12.33;;
5121;SDS011;2563;52.242;7.956;2022-11-21T09:18:29;29.53;;;12.90;;
5121;SDS011;2563;52.242;7.956;2022-11-21T09:20:54;32.80;;;13.83;;
5121;SDS011;2563;52.242;7.956;2022-11-21T09:23:20;32.27;;;14.63;;
5121;SDS011;2563;52.242;7.956;2022-11-21T09:25:45;28.70;;;13.47;;
5121;SDS011;2563;52.242;7.956;2022-11-21T09:28:11;30.37;;;12.53;;
5121;SDS011;2563;52.242;7.956;2022-11-21T09:30:38;31.73;;;13.17;;
5121;SDS011;2563;52.242;7.956;2022-11-21T09:33:05;29.37;;;12.63;;
5121;SDS011;2563;52.242;7.956;2022-11-21T09:35:32;32.07;;;13.50;;
5121;SDS011;2563;52.242;7.956;2022-11-21T09:37:58;34.37;;;13.53;;
5121;SDS011;2563;52.242;7.956;2022-11-21T09:40:24;27.60;;;12.77;;
5121;SDS011;2563;52.242;7.956;2022-11-21T09:45:25;35.53;;;14.57;;
5121;SDS011;2563;52.242;7.956;2022-11-21T09:47:55;41.37;;;17.50;;
5121;SDS011;2563;52.242;7.956;2022-11-21T09:58:44;49.50;;;22.97;;
5121;SDS011;2563;52.242;7.956;2022-11-21T10:01:13;34.83;;;15.10;;
5121;SDS011;2563;52.242;7.956;2022-11-21T10:03:41;25.67;;;12.00;;
5121;SDS011;2563;52.242;7.956;2022-11-21T10:17:30;24.83;;;9.93;;
5121;SDS011;2563;52.242;7.956;2022-11-21T10:25:14;24.93;;;9.90;;
5121;SDS011;2563;52.242;7.956;2022-11-21T10:27:46;31.13;;;11.63;;
5121;SDS011;2563;52.242;7.956;2022-11-21T10:30:17;25.33;;;10.60;;
5121;SDS011;2563;52.242;7.956;2022-11-21T10:32:54;24.33;;;9.63;;
5121;SDS011;2563;52.242;7.956;2022-11-21T10:35:24;28.50;;;10.37;;
5121;SDS011;2563;52.242;7.956;2022-11-21T10:37:55;26.13;;;9.23;;
5121;SDS011;2563;52.242;7.956;2022-11-21T10:46:06;24.33;;;8.67;;
5121;SDS011;2563;52.242;7.956;2022-11-21T10:48:32;27.23;;;8.97;;
5121;SDS011;2563;52.242;7.956;2022-11-21T10:54:04;18.90;;;7.90;;
5121;SDS011;2563;52.242;7.956;2022-11-21T10:56:57;16.13;;;6.20;;
5121;SDS011;2563;52.242;7.956;2022-11-21T10:59:27;14.00;;;5.60;;
5121;SDS011;2563;52.242;7.956;2022-11-21T11:04:45;22.47;;;8.10;;
5121;SDS011;2563;52.242;7.956;2022-11-21T11:07:21;21.00;;;8.60;;
5121;SDS011;2563;52.242;7.956;2022-11-21T11:09:51;21.17;;;7.83;;
5121;SDS011;2563;52.242;7.956;2022-11-21T11:12:37;18.90;;;7.80;;
5121;SDS011;2563;52.242;7.956;2022-11-21T11:15:22;16.70;;;7.03;;
5121;SDS011;2563;52.242;7.956;2022-11-21T11:17:56;18.67;;;7.70;;
5121;SDS011;2563;52.242;7.956;2022-11-21T11:21:14;16.60;;;6.40;;
5121;SDS011;2563;52.242;7.956;2022-11-21T11:25:44;18.93;;;6.83;;
5121;SDS011;2563;52.242;7.956;2022-11-21T11:28:20;17.90;;;6.70;;
5121;SDS011;2563;52.242;7.956;2022-11-21T11:30:48;16.83;;;7.80;;
5121;SDS011;2563;52.242;7.956;2022-11-21T11:38:36;16.33;;;5.60;;
5121;SDS011;2563;52.242;7.956;2022-11-21T11:41:04;16.40;;;6.33;;
5121;SDS011;2563;52.242;7.956;2022-11-21T11:43:51;12.37;;;5.33;;
5121;SDS011;2563;52.242;7.956;2022-11-21T11:47:04;10.13;;;5.00;;
5121;SDS011;2563;52.242;7.956;2022-11-21T11:49:57;10.70;;;5.17;;
5121;SDS011;2563;52.242;7.956;2022-11-21T11:56:10;10.90;;;4.80;;
5121;SDS011;2563;52.242;7.956;2022-11-21T11:58:22;8.00;;;3.77;;
5121;SDS011;2563;52.242;7.956;2022-11-21T12:00:57;8.60;;;3.90;;
5121;SDS011;2563;52.242;7.956;2022-11-21T12:03:38;10.20;;;4.53;;
5121;SDS011;2563;52.242;7.956;2022-11-21T12:06:08;11.10;;;5.00;;
5121;SDS011;2563;52.242;7.956;2022-11-21T12:12:03;11.90;;;5.43;;
5121;SDS011;2563;52.242;7.956;2022-11-21T12:17:26;16.50;;;6.50;;
5121;SDS011;2563;52.242;7.956;2022-11-21T12:19:59;13.93;;;6.43;;
5121;SDS011;2563;52.242;7.956;2022-11-21T12:22:35;16.03;;;7.80;;
5121;SDS011;2563;52.242;7.956;2022-11-21T12:25:00;19.63;;;6.93;;
5121;SDS011;2563;52.242;7.956;2022-11-21T12:27:27;13.67;;;7.20;;
5121;SDS011;2563;52.242;7.956;2022-11-21T12:30:01;16.10;;;7.30;;
5121;SDS011;2563;52.242;7.956;2022-11-21T12:35:28;18.13;;;8.20;;
5121;SDS011;2563;52.242;7.956;2022-11-21T12:40:45;21.10;;;8.50;;
5121;SDS011;2563;52.242;7.956;2022-11-21T12:43:35;20.67;;;8.30;;
5121;SDS011;2563;52.242;7.956;2022-11-21T12:46:09;22.20;;;9.73;;
5121;SDS011;2563;52.242;7.956;2022-11-21T12:48:44;18.00;;;8.30;;
5121;SDS011;2563;52.242;7.956;2022-11-21T13:00:10;24.80;;;10.20;;
5121;SDS011;2563;52.242;7.956;2022-11-21T13:02:49;27.87;;;10.57;;
5121;SDS011;2563;52.242;7.956;2022-11-21T13:05:29;27.23;;;10.43;;
5121;SDS011;2563;52.242;7.956;2022-11-21T13:08:00;26.03;;;11.23;;
5121;SDS011;2563;52.242;7.956;2022-11-21T13:10:32;35.13;;;11.33;;
5121;SDS011;2563;52.242;7.956;2022-11-21T13:13:08;22.57;;;10.10;;
5121;SDS011;2563;52.242;7.956;2022-11-21T13:15:47;26.90;;;10.43;;
5121;SDS011;2563;52.242;7.956;2022-11-21T13:18:22;29.07;;;11.70;;
5121;SDS011;2563;52.242;7.956;2022-11-21T13:20:52;23.60;;;10.30;;
5121;SDS011;2563;52.242;7.956;2022-11-21T13:23:40;24.03;;;9.23;;
5121;SDS011;2563;52.242;7.956;2022-11-21T13:26:37;25.97;;;10.33;;
5121;SDS011;2563;52.242;7.956;2022-11-21T13:29:12;27.10;;;11.37;;
5121;SDS011;2563;52.242;7.956;2022-11-21T13:31:38;27.13;;;9.90;;
5121;SDS011;2563;52.242;7.956;2022-11-21T13:34:04;24.33;;;10.03;;
5121;SDS011;2563;52.242;7.956;2022-11-21T13:36:56;28.17;;;9.77;;
5121;SDS011;2563;52.242;7.956;2022-11-21T13:39:27;23.23;;;9.43;;
5121;SDS011;2563;52.242;7.956;2022-11-21T13:42:07;25.63;;;8.80;;
5121;SDS011;2563;52.242;7.956;2022-11-21T13:44:52;25.07;;;10.27;;
5121;SDS011;2563;52.242;7.956;2022-11-21T13:49:58;26.70;;;10.77;;
5121;SDS011;2563;52.242;7.956;2022-11-21T13:55:29;25.83;;;9.70;;
5121;SDS011;2563;52.242;7.956;2022-11-21T14:11:43;31.93;;;11.73;;
5121;SDS011;2563;52.242;7.956;2022-11-21T14:19:52;26.90;;;11.00;;
5121;SDS011;2563;52.242;7.956;2022-11-21T14:22:53;27.87;;;10.40;;
5121;SDS011;2563;52.242;7.956;2022-11-21T14:25:28;28.50;;;12.33;;
5121;SDS011;2563;52.242;7.956;2022-11-21T14:27:54;34.47;;;11.30;;
5121;SDS011;2563;52.242;7.956;2022-11-21T14:30:33;29.60;;;10.93;;
5121;SDS011;2563;52.242;7.956;2022-11-21T14:35:46;33.47;;;10.30;;
5121;SDS011;2563;52.242;7.956;2022-11-21T14:38:18;30.20;;;12.10;;
5121;SDS011;2563;52.242;7.956;2022-11-21T14:40:45;30.77;;;11.73;;
5121;SDS011;2563;52.242;7.956;2022-11-21T14:43:25;29.37;;;11.27;;
5121;SDS011;2563;52.242;7.956;2022-11-21T14:45:55;36.03;;;13.47;;
5121;SDS011;2563;52.242;7.956;2022-11-21T14:48:27;31.90;;;12.50;;
5121;SDS011;2563;52.242;7.956;2022-11-21T14:50:54;30.83;;;12.20;;
5121;SDS011;2563;52.242;7.956;2022-11-21T14:53:22;33.00;;;12.53;;
5121;SDS011;2563;52.242;7.956;2022-11-21T14:55:48;33.07;;;13.57;;
5121;SDS011;2563;52.242;7.956;2022-11-21T14:58:17;30.77;;;13.70;;
5121;SDS011;2563;52.242;7.956;2022-11-21T15:00:59;29.00;;;11.53;;
5121;SDS011;2563;52.242;7.956;2022-11-21T15:03:26;31.00;;;13.27;;
5121;SDS011;2563;52.242;7.956;2022-11-21T15:06:03;32.23;;;13.00;;
5121;SDS011;2563;52.242;7.956;2022-11-21T15:08:29;31.07;;;12.23;;
5121;SDS011;2563;52.242;7.956;2022-11-21T15:10:56;31.43;;;12.30;;
5121;SDS011;2563;52.242;7.956;2022-11-21T15:13:24;30.57;;;12.93;;
5121;SDS011;2563;52.242;7.956;2022-11-21T15:15:54;34.10;;;12.67;;
5121;SDS011;2563;52.242;7.956;2022-11-21T15:18:22;30.93;;;12.40;;
5121;SDS011;2563;52.242;7.956;2022-11-21T15:20:51;32.00;;;12.57;;
5121;SDS011;2563;52.242;7.956;2022-11-21T15:23:25;34.83;;;13.20;;
5121;SDS011;2563;52.242;7.956;2022-11-21T15:25:56;31.87;;;12.83;;
5121;SDS011;2563;52.242;7.956;2022-11-21T15:28:22;35.50;;;13.23;;
5121;SDS011;2563;52.242;7.956;2022-11-21T15:31:12;35.93;;;13.60;;
5121;SDS011;2563;52.242;7.956;2022-11-21T15:37:10;41.23;;;14.33;;
5121;SDS011;2563;52.242;7.956;2022-11-21T15:39:42;39.50;;;14.40;;
5121;SDS011;2563;52.242;7.956;2022-11-21T15:42:33;33.50;;;13.57;;
5121;SDS011;2563;52.242;7.956;2022-11-21T15:45:00;39.13;;;14.20;;
5121;SDS011;2563;52.242;7.956;2022-11-21T15:47:26;43.67;;;17.77;;
5121;SDS011;2563;52.242;7.956;2022-11-21T15:49:52;41.13;;;14.57;;
5121;SDS011;2563;52.242;7.956;2022-11-21T15:52:18;38.87;;;15.17;;
5121;SDS011;2563;52.242;7.956;2022-11-21T15:54:44;36.17;;;12.10;;
5121;SDS011;2563;52.242;7.956;2022-11-21T15:57:09;37.20;;;13.80;;
5121;SDS011;2563;52.242;7.956;2022-11-21T15:59:34;42.47;;;13.47;;
5121;SDS011;2563;52.242;7.956;2022-11-21T16:02:00;32.60;;;12.20;;
5121;SDS011;2563;52.242;7.956;2022-11-21T16:04:25;33.73;;;12.57;;
5121;SDS011;2563;52.242;7.956;2022-11-21T16:06:51;37.00;;;13.50;;
5121;SDS011;2563;52.242;7.956;2022-11-21T16:09:17;32.80;;;13.50;;
5121;SDS011;2563;52.242;7.956;2022-11-21T16:11:42;35.83;;;13.33;;
5121;SDS011;2563;52.242;7.956;2022-11-21T16:14:11;34.77;;;13.27;;
5121;SDS011;2563;52.242;7.956;2022-11-21T16:16:38;36.23;;;13.37;;
5121;SDS011;2563;52.242;7.956;2022-11-21T16:19:04;33.10;;;12.40;;
5121;SDS011;2563;52.242;7.956;2022-11-21T16:21:30;35.70;;;13.20;;
5121;SDS011;2563;52.242;7.956;2022-11-21T16:23:56;43.57;;;15.60;;
5121;SDS011;2563;52.242;7.956;2022-11-21T16:26:21;29.23;;;12.90;;
5121;SDS011;2563;52.242;7.956;2022-11-21T16:28:52;36.93;;;13.90;;
5121;SDS011;2563;52.242;7.956;2022-11-21T16:31:25;35.50;;;13.27;;
5121;SDS011;2563;52.242;7.956;2022-11-21T16:33:52;31.77;;;13.27;;
5121;SDS011;2563;52.242;7.956;2022-11-21T16:36:19;30.30;;;11.13;;
5121;SDS011;2563;52.242;7.956;2022-11-21T16:38:46;37.33;;;12.43;;
5121;SDS011;2563;52.242;7.956;2022-11-21T16:41:11;33.93;;;13.67;;
5121;SDS011;2563;52.242;7.956;2022-11-21T16:43:37;30.90;;;12.10;;
5121;SDS011;2563;52.242;7.956;2022-11-21T16:46:10;32.30;;;13.10;;